createdAt,value
2018-08-20T00:00:31.602Z,21.00
2018-08-20T00:02:59.250Z,21.10
2018-08-20T00:05:29.913Z,21.00
2018-08-20T00:07:58.232Z,21.00
2018-08-20T00:10:26.474Z,21.00
2018-08-20T00:12:54.091Z,20.90
2018-08-20T00:15:21.821Z,20.70
2018-08-20T00:17:49.384Z,20.80
2018-08-20T00:20:16.991Z,20.90
2018-08-20T00:22:44.540Z,21.00
2018-08-20T00:25:15.986Z,21.00
2018-08-20T00:27:44.216Z,21.00
2018-08-20T00:30:15.669Z,21.00
2018-08-20T00:32:44.350Z,21.10
2018-08-20T00:35:14.573Z,21.10
2018-08-20T00:37:47.144Z,21.20
2018-08-20T00:40:14.760Z,21.10
2018-08-20T00:42:42.330Z,21.20
2018-08-20T00:45:10.248Z,21.20
2018-08-20T00:47:37.840Z,21.10
2018-08-20T00:50:06.982Z,21.10
2018-08-20T00:52:34.684Z,21.10
2018-08-20T00:55:02.246Z,21.10
2018-08-20T00:57:30.094Z,21.10
2018-08-20T00:59:57.729Z,21.00
2018-08-20T01:02:29.047Z,21.10
2018-08-20T01:04:57.070Z,21.00
2018-08-20T01:07:25.080Z,20.90
2018-08-20T01:09:53.034Z,21.00
2018-08-20T01:12:20.642Z,21.10
2018-08-20T01:14:48.233Z,21.10
2018-08-20T01:17:15.860Z,21.10
2018-08-20T01:19:43.417Z,21.00
2018-08-20T01:22:10.969Z,21.00
2018-08-20T01:24:38.502Z,20.90
2018-08-20T01:27:06.088Z,20.80
2018-08-20T01:29:33.621Z,20.80
2018-08-20T01:32:01.376Z,20.80
2018-08-20T01:34:28.934Z,20.90
2018-08-20T01:36:56.465Z,20.90
2018-08-20T01:39:24.034Z,21.00
2018-08-20T01:41:51.587Z,20.90
2018-08-20T01:44:19.199Z,20.90
2018-08-20T01:46:46.858Z,20.90
2018-08-20T01:49:14.496Z,20.90
2018-08-20T01:51:42.100Z,21.00
2018-08-20T01:54:09.668Z,21.00
2018-08-20T01:56:37.225Z,20.90
2018-08-20T01:59:04.838Z,20.90
2018-08-20T02:01:32.478Z,21.00
2018-08-20T02:04:00.038Z,20.90
2018-08-20T02:06:27.588Z,20.80
2018-08-20T02:08:55.201Z,20.90
2018-08-20T02:11:22.775Z,20.90
2018-08-20T02:13:50.422Z,21.00
2018-08-20T02:16:18.040Z,21.00
2018-08-20T02:18:45.698Z,21.00
2018-08-20T02:21:13.241Z,21.00
2018-08-20T02:23:40.728Z,20.90
2018-08-20T02:26:08.329Z,20.70
2018-08-20T02:28:35.909Z,20.60
2018-08-20T02:31:03.522Z,20.60
2018-08-20T02:33:31.076Z,20.70
2018-08-20T02:35:58.645Z,20.70
2018-08-20T02:38:26.173Z,20.70
2018-08-20T02:40:53.747Z,20.70
2018-08-20T02:43:21.345Z,20.90
2018-08-20T02:45:48.939Z,21.00
2018-08-20T02:48:16.556Z,21.00
2018-08-20T02:50:44.115Z,21.00
2018-08-20T02:53:12.288Z,21.00
2018-08-20T02:55:39.948Z,20.90
2018-08-20T02:58:07.580Z,20.90
2018-08-20T03:00:35.176Z,20.90
2018-08-20T03:03:03.756Z,20.80
2018-08-20T03:05:32.345Z,20.80
2018-08-20T03:08:00.116Z,20.70
2018-08-20T03:10:27.698Z,20.70
2018-08-20T03:12:55.283Z,20.70
2018-08-20T03:15:22.858Z,20.80
2018-08-20T03:17:50.540Z,20.80
2018-08-20T03:20:18.144Z,20.90
2018-08-20T03:22:45.762Z,20.80
2018-08-20T03:25:13.398Z,20.70
2018-08-20T03:27:40.946Z,20.60
2018-08-20T03:30:09.397Z,20.50
2018-08-20T03:32:37.555Z,20.40
2018-08-20T03:35:07.255Z,20.40
2018-08-20T03:37:35.105Z,20.30
2018-08-20T03:40:02.773Z,20.10
2018-08-20T03:42:30.377Z,20.00
2018-08-20T03:44:58.700Z,20.00
2018-08-20T03:47:26.343Z,19.80
2018-08-20T03:49:53.974Z,19.70
2018-08-20T03:52:21.568Z,19.70
2018-08-20T03:54:49.106Z,19.50
2018-08-20T03:57:16.672Z,19.50
2018-08-20T03:59:44.310Z,19.50
2018-08-20T04:02:11.954Z,19.50
2018-08-20T04:04:39.673Z,19.40
2018-08-20T04:07:07.321Z,19.50
2018-08-20T04:09:35.261Z,19.50
2018-08-20T04:12:03.549Z,19.50
2018-08-20T04:14:31.127Z,19.30
2018-08-20T04:16:59.029Z,19.30
2018-08-20T04:19:27.033Z,19.30
2018-08-20T04:21:54.628Z,19.30
2018-08-20T04:24:22.271Z,19.30
2018-08-20T04:26:50.509Z,19.40
2018-08-20T04:29:18.375Z,19.50
2018-08-20T04:31:46.141Z,19.50
2018-08-20T04:34:13.817Z,19.40
2018-08-20T04:36:41.573Z,19.50
2018-08-20T04:39:09.695Z,19.50
2018-08-20T04:41:37.512Z,19.60
2018-08-20T04:44:05.111Z,19.50
2018-08-20T04:46:32.785Z,19.60
2018-08-20T04:49:00.620Z,19.70
2018-08-20T04:51:28.402Z,19.70
2018-08-20T04:53:55.876Z,19.80
2018-08-20T04:56:24.070Z,19.80
2018-08-20T04:58:51.635Z,19.80
2018-08-20T05:01:19.243Z,19.90
2018-08-20T05:03:46.834Z,20.10
2018-08-20T05:06:14.363Z,20.20
2018-08-20T05:08:41.985Z,20.30
2018-08-20T05:11:09.598Z,20.30
2018-08-20T05:13:37.684Z,20.40
2018-08-20T05:16:05.298Z,20.60
2018-08-20T05:18:32.896Z,20.60
2018-08-20T05:21:00.510Z,20.70
2018-08-20T05:23:28.114Z,20.80
2018-08-20T05:25:55.699Z,20.80
2018-08-20T05:28:23.686Z,20.80
2018-08-20T05:30:51.285Z,21.00
2018-08-20T05:33:18.961Z,21.10
2018-08-20T05:35:46.546Z,21.20
2018-08-20T05:38:14.186Z,21.30
2018-08-20T05:40:41.757Z,21.20
2018-08-20T05:43:09.467Z,21.20
2018-08-20T05:45:37.093Z,21.20
2018-08-20T05:48:04.897Z,21.20
2018-08-20T05:50:32.495Z,21.20
2018-08-20T05:53:00.111Z,21.30
2018-08-20T05:55:27.775Z,21.40
2018-08-20T05:57:55.455Z,21.50
2018-08-20T06:00:23.087Z,21.60
2018-08-20T06:02:50.698Z,21.80
2018-08-20T06:05:18.328Z,21.90
2018-08-20T06:07:45.914Z,22.00
2018-08-20T06:10:13.487Z,22.00
2018-08-20T06:12:41.060Z,22.10
2018-08-20T06:15:12.815Z,22.30
2018-08-20T06:17:40.582Z,22.50
2018-08-20T06:20:15.758Z,22.50
2018-08-20T06:22:43.398Z,22.90
2018-08-20T06:25:11.939Z,23.10
2018-08-20T06:27:40.100Z,23.40
2018-08-20T06:30:10.721Z,23.50
2018-08-20T06:32:38.335Z,23.40
2018-08-20T06:35:07.800Z,23.60
2018-08-20T06:37:38.253Z,23.70
2018-08-20T06:40:08.901Z,24.00
2018-08-20T06:42:36.598Z,24.30
2018-08-20T06:45:06.327Z,24.50
2018-08-20T06:47:33.906Z,24.50
2018-08-20T06:50:01.521Z,24.60
2018-08-20T06:52:29.131Z,24.60
2018-08-20T06:54:57.135Z,24.70
2018-08-20T06:57:24.777Z,24.40
2018-08-20T06:59:52.386Z,24.60
2018-08-20T07:02:20.073Z,24.60
2018-08-20T07:04:47.652Z,24.70
2018-08-20T07:07:15.273Z,24.70
2018-08-20T07:09:42.856Z,24.80
2018-08-20T07:12:10.429Z,24.90
2018-08-20T07:14:38.075Z,25.10
2018-08-20T07:17:05.673Z,25.10
2018-08-20T07:19:33.245Z,24.90
2018-08-20T07:22:01.268Z,25.00
2018-08-20T07:24:28.806Z,24.90
2018-08-20T07:26:56.342Z,24.90
2018-08-20T07:29:40.721Z,25.10
2018-08-20T07:32:10.327Z,25.30
2018-08-20T07:34:39.977Z,25.30
2018-08-20T07:37:09.302Z,24.90
2018-08-20T07:39:37.915Z,24.90
2018-08-20T07:42:05.562Z,24.70
2018-08-20T07:44:33.213Z,25.10
2018-08-20T07:47:00.818Z,25.30
2018-08-20T07:49:28.495Z,25.40
2018-08-20T07:51:56.102Z,25.40
2018-08-20T07:54:23.703Z,25.30
2018-08-20T07:56:51.388Z,25.40
2018-08-20T07:59:19.049Z,25.30
2018-08-20T08:01:46.643Z,25.40
2018-08-20T08:04:14.270Z,25.30
2018-08-20T08:06:41.953Z,25.50
2018-08-20T08:09:10.435Z,25.70
2018-08-20T08:11:38.048Z,26.00
2018-08-20T08:14:06.263Z,26.20
2018-08-20T08:16:35.141Z,26.20
2018-08-20T08:19:02.895Z,26.10
2018-08-20T08:21:30.693Z,26.40
2018-08-20T08:23:58.305Z,26.60
2018-08-20T08:26:25.962Z,26.70
2018-08-20T08:28:53.700Z,26.70
2018-08-20T08:31:21.317Z,26.50
2018-08-20T08:33:48.958Z,26.50
2018-08-20T08:36:16.570Z,26.60
2018-08-20T08:38:44.187Z,26.50
2018-08-20T08:41:11.864Z,26.60
2018-08-20T08:43:39.510Z,26.10
2018-08-20T08:46:07.184Z,26.00
2018-08-20T08:48:34.737Z,25.70
2018-08-20T08:51:02.324Z,25.90
2018-08-20T08:53:29.913Z,25.70
2018-08-20T08:55:57.509Z,25.60
2018-08-20T08:58:25.111Z,26.00
2018-08-20T09:00:52.758Z,26.20
2018-08-20T09:03:20.468Z,26.50
2018-08-20T09:05:48.215Z,26.00
2018-08-20T09:08:15.865Z,26.20
2018-08-20T09:10:43.529Z,26.10
2018-08-20T09:13:11.187Z,26.40
2018-08-20T09:15:38.855Z,26.40
2018-08-20T09:18:06.587Z,26.40
2018-08-20T09:20:34.249Z,26.60
2018-08-20T09:23:01.790Z,26.80
2018-08-20T09:25:29.405Z,26.70
2018-08-20T09:27:57.037Z,26.20
2018-08-20T09:30:24.669Z,26.60
2018-08-20T09:32:52.253Z,26.90
2018-08-20T09:35:19.962Z,26.90
2018-08-20T09:37:47.638Z,26.80
2018-08-20T09:40:15.330Z,26.90
2018-08-20T09:42:43.342Z,26.90
2018-08-20T09:45:10.896Z,26.80
2018-08-20T09:47:39.792Z,26.80
2018-08-20T09:50:12.465Z,26.80
2018-08-20T09:52:40.041Z,26.90
2018-08-20T09:55:08.275Z,27.20
2018-08-20T09:57:35.865Z,27.20
2018-08-20T10:00:06.993Z,27.10
2018-08-20T10:02:34.629Z,27.00
2018-08-20T10:05:02.301Z,27.20
2018-08-20T10:07:30.051Z,27.20
2018-08-20T10:09:57.597Z,26.80
2018-08-20T10:12:25.254Z,26.90
2018-08-20T10:14:53.166Z,27.00
2018-08-20T10:17:20.815Z,27.10
2018-08-20T10:19:48.409Z,26.90
2018-08-20T10:22:16.006Z,26.80
2018-08-20T10:24:43.636Z,27.00
2018-08-20T10:27:11.408Z,27.20
2018-08-20T10:29:38.973Z,27.20
2018-08-20T10:32:06.683Z,27.20
2018-08-20T10:34:34.175Z,27.30
2018-08-20T10:37:01.971Z,27.20
2018-08-20T10:39:29.597Z,27.30
2018-08-20T10:41:57.191Z,27.60
2018-08-20T10:44:24.798Z,27.60
2018-08-20T10:46:52.519Z,27.90
2018-08-20T10:49:20.090Z,28.20
2018-08-20T10:51:47.663Z,28.40
2018-08-20T10:54:15.264Z,28.30
2018-08-20T10:56:43.457Z,28.50
2018-08-20T10:59:11.054Z,28.70
2018-08-20T11:01:38.662Z,28.60
2018-08-20T11:04:06.350Z,28.30
2018-08-20T11:06:33.947Z,28.50
2018-08-20T11:09:01.602Z,28.20
2018-08-20T11:11:29.284Z,28.30
2018-08-20T11:13:56.844Z,28.70
2018-08-20T11:16:24.474Z,28.90
2018-08-20T11:18:52.142Z,28.80
2018-08-20T11:21:19.689Z,28.70
2018-08-20T11:23:47.271Z,28.80
2018-08-20T11:26:14.870Z,28.50
2018-08-20T11:28:42.410Z,28.50
2018-08-20T11:31:09.998Z,28.20
2018-08-20T11:33:37.629Z,28.20
2018-08-20T11:36:05.290Z,28.50
2018-08-20T11:38:32.876Z,28.70
2018-08-20T11:41:00.491Z,28.80
2018-08-20T11:43:28.108Z,29.30
2018-08-20T11:45:55.709Z,29.30
2018-08-20T11:48:23.333Z,29.30
2018-08-20T11:50:50.944Z,29.30
2018-08-20T11:53:18.740Z,29.90
2018-08-20T11:55:46.405Z,30.20
2018-08-20T11:58:14.172Z,31.10
2018-08-20T12:00:41.892Z,30.80
2018-08-20T12:03:09.476Z,30.70
2018-08-20T12:05:37.105Z,31.00
2018-08-20T12:08:04.765Z,30.70
2018-08-20T12:10:32.458Z,29.90
2018-08-20T12:13:00.034Z,30.30
2018-08-20T12:15:27.620Z,30.80
2018-08-20T12:17:55.874Z,30.20
2018-08-20T12:20:23.502Z,30.30
2018-08-20T12:22:51.238Z,32.00
2018-08-20T12:25:18.819Z,32.50
2018-08-20T12:27:46.456Z,32.30
2018-08-20T12:30:14.221Z,32.40
2018-08-20T12:32:42.173Z,33.40
2018-08-20T12:35:10.199Z,34.60
2018-08-20T12:37:38.451Z,33.30
2018-08-20T12:40:06.378Z,33.00
2018-08-20T12:42:33.981Z,32.10
2018-08-20T12:45:01.606Z,32.90
2018-08-20T12:47:29.614Z,31.70
2018-08-20T12:49:57.245Z,31.70
2018-08-20T12:52:24.859Z,30.80
2018-08-20T12:54:52.761Z,31.00
2018-08-20T12:57:20.444Z,31.40
2018-08-20T12:59:52.513Z,31.90
2018-08-20T13:02:20.070Z,32.30
2018-08-20T13:04:47.679Z,32.80
2018-08-20T13:07:15.314Z,33.60
2018-08-20T13:09:42.985Z,34.60
2018-08-20T13:12:10.657Z,33.50
2018-08-20T13:14:38.277Z,34.60
2018-08-20T13:17:06.046Z,34.00
2018-08-20T13:19:33.704Z,33.20
2018-08-20T13:22:01.505Z,32.00
2018-08-20T13:24:29.239Z,31.40
2018-08-20T13:26:56.889Z,31.40
2018-08-20T13:29:24.526Z,32.20
2018-08-20T13:31:52.189Z,31.80
2018-08-20T13:34:19.783Z,31.70
2018-08-20T13:36:47.523Z,32.70
2018-08-20T13:39:15.253Z,34.20
2018-08-20T13:41:42.977Z,33.80
2018-08-20T13:44:10.607Z,33.20
2018-08-20T13:46:38.241Z,32.00
2018-08-20T13:49:05.843Z,32.40
2018-08-20T13:51:33.570Z,32.20
2018-08-20T13:54:01.251Z,31.90
2018-08-20T13:56:28.937Z,31.70
2018-08-20T13:58:56.494Z,31.70
2018-08-20T14:01:24.132Z,31.60
2018-08-20T14:03:51.718Z,31.30
2018-08-20T14:06:19.393Z,31.20
2018-08-20T14:08:46.970Z,31.70
2018-08-20T14:11:14.580Z,31.80
2018-08-20T14:13:42.165Z,31.00
2018-08-20T14:16:09.714Z,31.70
2018-08-20T14:18:37.317Z,32.50
2018-08-20T14:21:11.642Z,34.40
2018-08-20T14:23:42.711Z,36.60
2018-08-20T14:26:10.334Z,36.70
2018-08-20T14:28:37.942Z,36.10
2018-08-20T14:31:05.675Z,37.00
2018-08-20T14:33:33.298Z,36.40
2018-08-20T14:36:00.953Z,37.20
2018-08-20T14:38:28.670Z,37.50
2018-08-20T14:40:56.358Z,37.50
2018-08-20T14:43:23.966Z,35.00
2018-08-20T14:45:57.285Z,34.00
2018-08-20T14:48:24.889Z,32.40
2018-08-20T14:50:52.498Z,32.00
2018-08-20T14:53:20.157Z,31.70
2018-08-20T14:55:47.749Z,31.70
2018-08-20T14:58:15.443Z,31.30
2018-08-20T15:00:43.086Z,30.60
2018-08-20T15:03:11.467Z,31.00
2018-08-20T15:05:39.102Z,31.20
2018-08-20T15:08:06.748Z,32.00
2018-08-20T15:10:34.342Z,32.60
2018-08-20T15:13:01.957Z,32.10
2018-08-20T15:15:29.615Z,31.90
2018-08-20T15:17:57.895Z,30.50
2018-08-20T15:20:25.535Z,30.20
2018-08-20T15:22:53.206Z,29.40
2018-08-20T15:25:20.777Z,29.00
2018-08-20T15:27:48.371Z,28.90
2018-08-20T15:30:15.934Z,28.90
2018-08-20T15:32:43.587Z,28.80
2018-08-20T15:35:11.271Z,28.50
2018-08-20T15:37:38.909Z,28.30
2018-08-20T15:40:06.627Z,28.10
2018-08-20T15:42:34.279Z,27.70
2018-08-20T15:45:01.900Z,27.80
2018-08-20T15:47:29.503Z,27.60
2018-08-20T15:49:57.152Z,27.50
2018-08-20T15:52:24.823Z,27.40
2018-08-20T15:54:52.760Z,27.40
2018-08-20T15:57:20.572Z,27.30
2018-08-20T15:59:48.257Z,27.30
2018-08-20T16:02:15.982Z,27.10
2018-08-20T16:04:43.666Z,27.00
2018-08-20T16:07:11.333Z,26.90
2018-08-20T16:09:39.045Z,26.80
2018-08-20T16:12:06.899Z,26.60
2018-08-20T16:14:34.563Z,26.60
2018-08-20T16:17:02.305Z,26.50
2018-08-20T16:19:29.904Z,26.40
2018-08-20T16:21:57.860Z,26.40
2018-08-20T16:24:25.463Z,26.30
2018-08-20T16:26:53.097Z,26.20
2018-08-20T16:29:20.678Z,26.10
2018-08-20T16:31:48.397Z,26.20
2018-08-20T16:34:16.080Z,26.10
2018-08-20T16:36:43.786Z,26.10
2018-08-20T16:39:12.383Z,26.10
2018-08-20T16:41:40.050Z,26.10
2018-08-20T16:44:08.746Z,26.00
2018-08-20T16:46:36.646Z,25.90
2018-08-20T16:49:04.696Z,25.90
2018-08-20T16:51:32.371Z,25.90
2018-08-20T16:53:59.967Z,25.90
2018-08-20T16:56:27.611Z,25.80
2018-08-20T16:58:55.299Z,25.90
2018-08-20T17:01:22.929Z,25.90
2018-08-20T17:03:50.614Z,25.80
2018-08-20T17:06:18.447Z,25.80
2018-08-20T17:08:46.164Z,26.10
2018-08-20T17:11:15.710Z,25.90
2018-08-20T17:13:43.610Z,25.90
2018-08-20T17:16:14.459Z,26.00
2018-08-20T17:18:42.082Z,26.00
2018-08-20T17:21:09.875Z,25.90
2018-08-20T17:23:37.563Z,25.90
2018-08-20T17:26:06.224Z,25.80
2018-08-20T17:28:33.904Z,25.70
2018-08-20T17:31:05.901Z,25.60
2018-08-20T17:33:34.431Z,25.60
2018-08-20T17:36:02.069Z,25.70
2018-08-20T17:38:29.752Z,25.60
2018-08-20T17:40:57.327Z,25.60
2018-08-20T17:43:25.065Z,25.60
2018-08-20T17:45:55.250Z,25.50
2018-08-20T17:48:28.904Z,25.30
2018-08-20T17:50:57.064Z,25.20
2018-08-20T17:53:35.614Z,25.10
2018-08-20T17:56:04.268Z,25.00
2018-08-20T17:58:31.970Z,24.90
2018-08-20T18:01:00.287Z,24.80
2018-08-20T18:03:28.536Z,24.70
2018-08-20T18:06:01.465Z,24.70
2018-08-20T18:08:30.706Z,24.50
2018-08-20T18:10:58.749Z,24.50
2018-08-20T18:13:45.047Z,24.40
2018-08-20T18:16:13.927Z,24.30
2018-08-20T18:18:43.369Z,24.30
2018-08-20T18:21:11.050Z,24.30
2018-08-20T18:23:38.761Z,24.20
2018-08-20T18:26:06.838Z,24.20
2018-08-20T18:28:42.277Z,24.20
2018-08-20T18:31:14.692Z,24.20
2018-08-20T18:33:43.768Z,24.20
2018-08-20T18:36:21.833Z,24.10
2018-08-20T18:38:51.720Z,24.10
2018-08-20T18:41:22.155Z,24.10
2018-08-20T18:43:49.995Z,24.20
2018-08-20T18:46:17.681Z,24.00
2018-08-20T18:48:45.350Z,24.00
2018-08-20T18:51:15.721Z,23.80
2018-08-20T18:53:43.627Z,23.80
2018-08-20T18:56:14.927Z,23.60
2018-08-20T18:58:43.668Z,23.50
2018-08-20T19:01:11.903Z,23.40
2018-08-20T19:03:45.462Z,23.30
2018-08-20T19:06:14.277Z,23.30
2018-08-20T19:08:42.388Z,23.20
2018-08-20T19:11:10.816Z,23.20
2018-08-20T19:13:38.780Z,23.10
2018-08-20T19:16:25.798Z,23.00
2018-08-20T19:18:53.881Z,23.00
2018-08-20T19:21:25.665Z,22.90
2018-08-20T19:23:55.066Z,22.80
2018-08-20T19:26:22.818Z,22.70
2018-08-20T19:28:50.502Z,22.60
2018-08-20T19:31:18.210Z,22.50
2018-08-20T19:33:45.984Z,22.50
2018-08-20T19:36:13.952Z,22.40
2018-08-20T19:38:41.776Z,22.40
2018-08-20T19:41:12.566Z,22.30
2018-08-20T19:43:50.792Z,22.20
2018-08-20T19:46:29.063Z,22.20
2018-08-20T19:49:03.060Z,22.10
2018-08-20T19:51:33.427Z,22.00
2018-08-20T19:54:01.243Z,22.00
2018-08-20T19:56:29.231Z,22.00
2018-08-20T19:58:57.010Z,22.00
2018-08-20T20:01:24.926Z,21.90
2018-08-20T20:03:52.976Z,22.00
2018-08-20T20:06:21.211Z,22.00
2018-08-20T20:08:48.862Z,22.00
2018-08-20T20:11:23.507Z,22.10
2018-08-20T20:13:55.807Z,22.30
2018-08-20T20:16:23.794Z,22.40
2018-08-20T20:18:51.888Z,22.40
2018-08-20T20:21:20.259Z,22.50
2018-08-20T20:23:48.015Z,22.50
2018-08-20T20:26:15.883Z,22.60
2018-08-20T20:28:45.941Z,22.60
2018-08-20T20:31:13.667Z,22.60
2018-08-20T20:33:41.378Z,22.70
2018-08-20T20:36:15.264Z,22.70
2018-08-20T20:38:43.408Z,22.70
2018-08-20T20:41:11.099Z,22.70
2018-08-20T20:43:38.713Z,22.80
2018-08-20T20:46:08.220Z,22.80
2018-08-20T20:48:36.120Z,22.80
2018-08-20T20:51:03.894Z,22.80
2018-08-20T20:53:31.655Z,22.80
2018-08-20T20:55:59.299Z,22.80
2018-08-20T20:58:32.917Z,22.90
2018-08-20T21:01:01.958Z,22.80
2018-08-20T21:03:29.987Z,22.80
2018-08-20T21:05:57.638Z,22.80
2018-08-20T21:08:32.237Z,22.80
2018-08-20T21:10:59.906Z,22.80
2018-08-20T21:16:08.192Z,22.80
2018-08-20T21:18:53.573Z,22.80
2018-08-20T21:21:22.118Z,22.80
2018-08-20T21:23:49.990Z,22.90
2018-08-20T21:26:17.746Z,22.90
2018-08-20T21:28:49.734Z,22.90
2018-08-20T21:31:18.681Z,22.80
2018-08-20T21:33:46.826Z,22.80
2018-08-20T21:36:14.952Z,22.80
2018-08-20T21:38:43.166Z,22.80
2018-08-20T21:41:10.836Z,22.90
2018-08-20T21:43:44.443Z,22.90
2018-08-20T21:46:12.476Z,22.90
2018-08-20T21:48:40.593Z,22.80
2018-08-20T21:51:17.183Z,22.80
2018-08-20T21:53:44.952Z,22.80
2018-08-20T21:56:12.978Z,22.80
2018-08-20T21:58:42.653Z,22.80
2018-08-20T22:01:12.108Z,22.60
2018-08-20T22:03:40.690Z,22.70
2018-08-20T22:06:08.483Z,22.80
2018-08-20T22:08:36.460Z,22.80
2018-08-20T22:11:04.204Z,22.80
2018-08-20T22:13:31.889Z,22.70
2018-08-20T22:16:21.945Z,22.80
2018-08-20T22:18:54.488Z,22.80
2018-08-20T22:21:22.285Z,22.70
2018-08-20T22:23:50.033Z,22.80
2018-08-20T22:26:19.455Z,22.70
2018-08-20T22:28:49.706Z,22.70
2018-08-20T22:31:17.692Z,22.70
2018-08-20T22:33:54.701Z,22.70
2018-08-20T22:36:22.350Z,22.70
2018-08-20T22:38:54.558Z,22.60
2018-08-20T22:41:23.388Z,22.60
2018-08-20T22:43:50.953Z,22.60
2018-08-20T22:46:19.755Z,22.60
2018-08-20T22:48:50.577Z,22.60
2018-08-20T22:51:18.925Z,22.60
2018-08-20T22:53:56.241Z,22.70
2018-08-20T22:56:30.812Z,22.60
2018-08-20T22:59:02.436Z,22.60
2018-08-20T23:04:04.842Z,22.60
2018-08-20T23:06:32.443Z,22.60
2018-08-20T23:09:22.345Z,22.60
2018-08-20T23:11:49.981Z,22.50
2018-08-20T23:14:17.515Z,22.50
2018-08-20T23:16:48.550Z,22.40
2018-08-20T23:19:16.365Z,22.40
2018-08-20T23:21:45.442Z,22.30
2018-08-20T23:24:14.012Z,22.30
2018-08-20T23:26:41.957Z,22.50
2018-08-20T23:29:09.898Z,22.40
2018-08-20T23:31:37.960Z,22.20
2018-08-20T23:34:10.990Z,22.20
2018-08-20T23:36:39.018Z,22.20
2018-08-20T23:39:10.870Z,22.30
2018-08-20T23:41:38.749Z,22.30
2018-08-20T23:44:06.662Z,22.30
2018-08-20T23:46:39.945Z,22.40
2018-08-20T23:49:07.836Z,22.40
2018-08-20T23:51:35.500Z,22.40
2018-08-20T23:54:03.139Z,22.40
2018-08-20T23:56:31.057Z,22.40
2018-08-20T23:58:59.116Z,22.40
